sensor_id;sensor_type;location;lat;lon;timestamp;P1;durP1;ratioP1;P2;durP2;ratioP2
34204;SDS011;20471;49.680;20.074;2022-12-18T00:01:20;132.37;;;51.70;;
34204;SDS011;20471;49.680;20.074;2022-12-18T00:03:53;124.60;;;49.35;;
34204;SDS011;20471;49.680;20.074;2022-12-18T00:06:21;144.35;;;56.53;;
34204;SDS011;20471;49.680;20.074;2022-12-18T00:08:50;139.03;;;53.23;;
34204;SDS011;20471;49.680;20.074;2022-12-18T00:11:18;133.20;;;55.95;;
34204;SDS011;20471;49.680;20.074;2022-12-18T00:13:48;133.57;;;52.23;;
34204;SDS011;20471;49.680;20.074;2022-12-18T00:16:17;135.32;;;54.00;;
34204;SDS011;20471;49.680;20.074;2022-12-18T00:18:47;132.15;;;55.43;;
34204;SDS011;20471;49.680;20.074;2022-12-18T00:21:15;139.57;;;54.15;;
34204;SDS011;20471;49.680;20.074;2022-12-18T00:23:43;139.72;;;55.58;;
34204;SDS011;20471;49.680;20.074;2022-12-18T00:26:12;135.00;;;53.85;;
34204;SDS011;20471;49.680;20.074;2022-12-18T00:28:48;138.43;;;54.20;;
34204;SDS011;20471;49.680;20.074;2022-12-18T00:31:17;142.60;;;55.60;;
34204;SDS011;20471;49.680;20.074;2022-12-18T00:33:47;134.72;;;53.42;;
34204;SDS011;20471;49.680;20.074;2022-12-18T00:36:14;139.30;;;53.40;;
34204;SDS011;20471;49.680;20.074;2022-12-18T00:38:45;128.60;;;50.73;;
34204;SDS011;20471;49.680;20.074;2022-12-18T00:41:13;137.72;;;51.77;;
34204;SDS011;20471;49.680;20.074;2022-12-18T00:44:00;133.15;;;52.27;;
34204;SDS011;20471;49.680;20.074;2022-12-18T00:46:28;144.55;;;54.30;;
34204;SDS011;20471;49.680;20.074;2022-12-18T00:48:55;136.15;;;52.48;;
34204;SDS011;20471;49.680;20.074;2022-12-18T00:51:22;139.47;;;51.92;;
34204;SDS011;20471;49.680;20.074;2022-12-18T00:53:49;133.25;;;50.30;;
34204;SDS011;20471;49.680;20.074;2022-12-18T00:56:16;141.57;;;51.05;;
34204;SDS011;20471;49.680;20.074;2022-12-18T00:58:43;142.07;;;51.50;;
34204;SDS011;20471;49.680;20.074;2022-12-18T01:01:09;137.40;;;50.65;;
34204;SDS011;20471;49.680;20.074;2022-12-18T01:03:36;128.68;;;47.75;;
34204;SDS011;20471;49.680;20.074;2022-12-18T01:06:06;133.95;;;48.10;;
34204;SDS011;20471;49.680;20.074;2022-12-18T01:11:07;145.47;;;53.55;;
34204;SDS011;20471;49.680;20.074;2022-12-18T01:13:37;134.85;;;50.25;;
34204;SDS011;20471;49.680;20.074;2022-12-18T01:16:05;132.55;;;50.10;;
34204;SDS011;20471;49.680;20.074;2022-12-18T01:18:32;132.82;;;49.23;;
34204;SDS011;20471;49.680;20.074;2022-12-18T01:20:59;140.65;;;52.85;;
34204;SDS011;20471;49.680;20.074;2022-12-18T01:23:26;132.30;;;51.70;;
34204;SDS011;20471;49.680;20.074;2022-12-18T01:25:52;141.73;;;52.78;;
34204;SDS011;20471;49.680;20.074;2022-12-18T01:28:19;135.85;;;50.33;;
34204;SDS011;20471;49.680;20.074;2022-12-18T01:30:46;129.35;;;50.00;;
34204;SDS011;20471;49.680;20.074;2022-12-18T01:33:13;145.95;;;50.28;;
34204;SDS011;20471;49.680;20.074;2022-12-18T01:35:40;136.75;;;51.20;;
34204;SDS011;20471;49.680;20.074;2022-12-18T01:38:08;129.82;;;47.58;;
34204;SDS011;20471;49.680;20.074;2022-12-18T01:40:35;133.27;;;48.50;;
34204;SDS011;20471;49.680;20.074;2022-12-18T01:43:02;129.70;;;47.78;;
34204;SDS011;20471;49.680;20.074;2022-12-18T01:45:30;127.07;;;47.43;;
34204;SDS011;20471;49.680;20.074;2022-12-18T01:48:02;121.72;;;45.45;;
34204;SDS011;20471;49.680;20.074;2022-12-18T01:50:32;128.27;;;45.78;;
34204;SDS011;20471;49.680;20.074;2022-12-18T01:55:40;125.05;;;45.25;;
34204;SDS011;20471;49.680;20.074;2022-12-18T01:58:16;127.32;;;45.38;;
34204;SDS011;20471;49.680;20.074;2022-12-18T02:00:44;135.68;;;46.48;;
34204;SDS011;20471;49.680;20.074;2022-12-18T02:03:11;129.07;;;47.10;;
34204;SDS011;20471;49.680;20.074;2022-12-18T02:05:45;122.92;;;45.67;;
34204;SDS011;20471;49.680;20.074;2022-12-18T02:08:20;123.60;;;44.65;;
34204;SDS011;20471;49.680;20.074;2022-12-18T02:13:55;122.25;;;44.88;;
34204;SDS011;20471;49.680;20.074;2022-12-18T02:27:51;117.30;;;41.20;;
34204;SDS011;20471;49.680;20.074;2022-12-18T02:30:20;116.50;;;40.40;;
34204;SDS011;20471;49.680;20.074;2022-12-18T02:32:49;112.72;;;39.88;;
34204;SDS011;20471;49.680;20.074;2022-12-18T02:35:23;111.92;;;40.52;;
34204;SDS011;20471;49.680;20.074;2022-12-18T02:37:53;103.02;;;38.55;;
34204;SDS011;20471;49.680;20.074;2022-12-18T02:40:21;110.48;;;40.73;;
34204;SDS011;20471;49.680;20.074;2022-12-18T02:42:50;109.75;;;40.92;;
34204;SDS011;20471;49.680;20.074;2022-12-18T02:45:17;103.87;;;40.10;;
34204;SDS011;20471;49.680;20.074;2022-12-18T02:47:45;98.65;;;38.55;;
34204;SDS011;20471;49.680;20.074;2022-12-18T02:50:18;104.20;;;40.40;;
34204;SDS011;20471;49.680;20.074;2022-12-18T03:01:31;105.67;;;38.78;;
34204;SDS011;20471;49.680;20.074;2022-12-18T03:04:14;99.15;;;37.08;;
34204;SDS011;20471;49.680;20.074;2022-12-18T03:06:48;107.97;;;37.23;;
34204;SDS011;20471;49.680;20.074;2022-12-18T03:09:19;100.72;;;36.88;;
34204;SDS011;20471;49.680;20.074;2022-12-18T03:12:03;99.13;;;36.63;;
34204;SDS011;20471;49.680;20.074;2022-12-18T03:15:01;98.15;;;36.28;;
34204;SDS011;20471;49.680;20.074;2022-12-18T03:17:44;87.75;;;34.65;;
34204;SDS011;20471;49.680;20.074;2022-12-18T03:20:23;92.42;;;37.23;;
34204;SDS011;20471;49.680;20.074;2022-12-18T03:23:06;103.32;;;36.93;;
34204;SDS011;20471;49.680;20.074;2022-12-18T03:25:26;80.65;;;32.58;;
34204;SDS011;20471;49.680;20.074;2022-12-18T03:27:54;98.00;;;38.78;;
34204;SDS011;20471;49.680;20.074;2022-12-18T03:30:24;94.52;;;36.28;;
34204;SDS011;20471;49.680;20.074;2022-12-18T03:35:51;95.90;;;34.45;;
34204;SDS011;20471;49.680;20.074;2022-12-18T03:38:18;94.77;;;35.05;;
34204;SDS011;20471;49.680;20.074;2022-12-18T03:46:30;87.30;;;33.65;;
34204;SDS011;20471;49.680;20.074;2022-12-18T03:49:41;88.87;;;34.90;;
34204;SDS011;20471;49.680;20.074;2022-12-18T03:52:52;94.72;;;34.75;;
34204;SDS011;20471;49.680;20.074;2022-12-18T03:55:29;94.40;;;36.77;;
34204;SDS011;20471;49.680;20.074;2022-12-18T03:57:59;87.08;;;34.15;;
34204;SDS011;20471;49.680;20.074;2022-12-18T04:00:29;86.08;;;35.43;;
34204;SDS011;20471;49.680;20.074;2022-12-18T04:02:57;89.32;;;34.60;;
34204;SDS011;20471;49.680;20.074;2022-12-18T04:05:27;87.90;;;33.42;;
34204;SDS011;20471;49.680;20.074;2022-12-18T04:07:56;89.67;;;34.78;;
34204;SDS011;20471;49.680;20.074;2022-12-18T04:10:23;90.17;;;34.78;;
34204;SDS011;20471;49.680;20.074;2022-12-18T04:12:50;93.47;;;35.20;;
34204;SDS011;20471;49.680;20.074;2022-12-18T04:15:17;89.10;;;33.40;;
34204;SDS011;20471;49.680;20.074;2022-12-18T04:17:47;93.58;;;34.30;;
34204;SDS011;20471;49.680;20.074;2022-12-18T04:20:15;93.60;;;35.00;;
34204;SDS011;20471;49.680;20.074;2022-12-18T04:22:43;88.87;;;33.88;;
34204;SDS011;20471;49.680;20.074;2022-12-18T04:25:09;92.82;;;33.67;;
34204;SDS011;20471;49.680;20.074;2022-12-18T04:27:37;88.40;;;34.08;;
34204;SDS011;20471;49.680;20.074;2022-12-18T04:30:04;94.37;;;35.38;;
34204;SDS011;20471;49.680;20.074;2022-12-18T04:32:33;95.92;;;35.68;;
34204;SDS011;20471;49.680;20.074;2022-12-18T04:35:00;91.00;;;35.28;;
34204;SDS011;20471;49.680;20.074;2022-12-18T04:37:29;86.08;;;32.00;;
34204;SDS011;20471;49.680;20.074;2022-12-18T04:39:56;85.05;;;32.80;;
34204;SDS011;20471;49.680;20.074;2022-12-18T04:42:22;85.05;;;32.80;;
34204;SDS011;20471;49.680;20.074;2022-12-18T04:44:49;84.30;;;31.97;;
34204;SDS011;20471;49.680;20.074;2022-12-18T04:47:16;85.12;;;32.70;;
34204;SDS011;20471;49.680;20.074;2022-12-18T04:49:42;90.62;;;32.35;;
34204;SDS011;20471;49.680;20.074;2022-12-18T04:52:09;81.20;;;30.77;;
34204;SDS011;20471;49.680;20.074;2022-12-18T04:54:36;78.15;;;29.35;;
34204;SDS011;20471;49.680;20.074;2022-12-18T04:57:02;84.92;;;30.50;;
34204;SDS011;20471;49.680;20.074;2022-12-18T04:59:29;88.30;;;31.95;;
34204;SDS011;20471;49.680;20.074;2022-12-18T05:01:56;88.80;;;32.53;;
34204;SDS011;20471;49.680;20.074;2022-12-18T05:04:22;94.22;;;33.48;;
34204;SDS011;20471;49.680;20.074;2022-12-18T05:06:49;86.42;;;33.23;;
34204;SDS011;20471;49.680;20.074;2022-12-18T05:09:16;75.47;;;29.60;;
34204;SDS011;20471;49.680;20.074;2022-12-18T05:11:42;93.33;;;33.15;;
34204;SDS011;20471;49.680;20.074;2022-12-18T05:14:09;86.67;;;31.00;;
34204;SDS011;20471;49.680;20.074;2022-12-18T05:16:35;79.15;;;29.07;;
34204;SDS011;20471;49.680;20.074;2022-12-18T05:19:02;81.53;;;27.93;;
34204;SDS011;20471;49.680;20.074;2022-12-18T05:21:29;79.42;;;29.10;;
34204;SDS011;20471;49.680;20.074;2022-12-18T05:23:55;71.47;;;28.05;;
34204;SDS011;20471;49.680;20.074;2022-12-18T05:26:22;76.85;;;28.12;;
34204;SDS011;20471;49.680;20.074;2022-12-18T05:28:49;68.60;;;25.43;;
34204;SDS011;20471;49.680;20.074;2022-12-18T05:31:15;72.12;;;26.97;;
34204;SDS011;20471;49.680;20.074;2022-12-18T05:33:42;70.72;;;26.20;;
34204;SDS011;20471;49.680;20.074;2022-12-18T05:36:09;73.57;;;28.65;;
34204;SDS011;20471;49.680;20.074;2022-12-18T05:38:38;70.57;;;27.75;;
34204;SDS011;20471;49.680;20.074;2022-12-18T05:41:05;72.10;;;28.32;;
34204;SDS011;20471;49.680;20.074;2022-12-18T05:43:34;77.20;;;27.95;;
34204;SDS011;20471;49.680;20.074;2022-12-18T05:46:03;78.12;;;29.80;;
34204;SDS011;20471;49.680;20.074;2022-12-18T05:48:33;71.95;;;27.07;;
34204;SDS011;20471;49.680;20.074;2022-12-18T05:51:04;63.75;;;25.20;;
34204;SDS011;20471;49.680;20.074;2022-12-18T05:53:34;70.90;;;26.85;;
34204;SDS011;20471;49.680;20.074;2022-12-18T05:56:02;72.20;;;26.55;;
34204;SDS011;20471;49.680;20.074;2022-12-18T05:58:31;72.85;;;28.00;;
34204;SDS011;20471;49.680;20.074;2022-12-18T06:01:05;74.07;;;27.17;;
34204;SDS011;20471;49.680;20.074;2022-12-18T06:03:42;77.10;;;30.02;;
34204;SDS011;20471;49.680;20.074;2022-12-18T06:06:12;71.87;;;27.60;;
34204;SDS011;20471;49.680;20.074;2022-12-18T06:08:45;66.95;;;26.55;;
34204;SDS011;20471;49.680;20.074;2022-12-18T06:11:12;74.22;;;29.02;;
34204;SDS011;20471;49.680;20.074;2022-12-18T06:13:43;73.85;;;28.95;;
34204;SDS011;20471;49.680;20.074;2022-12-18T06:16:09;68.95;;;26.40;;
34204;SDS011;20471;49.680;20.074;2022-12-18T06:18:36;59.80;;;24.75;;
34204;SDS011;20471;49.680;20.074;2022-12-18T06:21:03;60.95;;;24.95;;
34204;SDS011;20471;49.680;20.074;2022-12-18T06:23:30;58.50;;;24.43;;
34204;SDS011;20471;49.680;20.074;2022-12-18T06:25:56;62.75;;;25.27;;
34204;SDS011;20471;49.680;20.074;2022-12-18T06:28:23;75.45;;;26.97;;
34204;SDS011;20471;49.680;20.074;2022-12-18T06:30:50;64.12;;;26.02;;
34204;SDS011;20471;49.680;20.074;2022-12-18T06:33:17;72.78;;;27.10;;
34204;SDS011;20471;49.680;20.074;2022-12-18T06:35:43;75.67;;;28.05;;
34204;SDS011;20471;49.680;20.074;2022-12-18T06:38:10;65.57;;;27.42;;
34204;SDS011;20471;49.680;20.074;2022-12-18T06:40:37;65.65;;;27.55;;
34204;SDS011;20471;49.680;20.074;2022-12-18T06:43:05;74.67;;;28.62;;
34204;SDS011;20471;49.680;20.074;2022-12-18T06:45:32;73.17;;;28.75;;
34204;SDS011;20471;49.680;20.074;2022-12-18T06:47:59;70.17;;;27.80;;
34204;SDS011;20471;49.680;20.074;2022-12-18T06:50:25;64.20;;;25.62;;
34204;SDS011;20471;49.680;20.074;2022-12-18T06:52:52;65.20;;;27.60;;
34204;SDS011;20471;49.680;20.074;2022-12-18T06:55:19;72.65;;;29.65;;
34204;SDS011;20471;49.680;20.074;2022-12-18T06:57:46;79.32;;;33.70;;
34204;SDS011;20471;49.680;20.074;2022-12-18T07:00:13;76.90;;;31.07;;
34204;SDS011;20471;49.680;20.074;2022-12-18T07:02:40;63.98;;;27.40;;
34204;SDS011;20471;49.680;20.074;2022-12-18T07:05:07;66.67;;;27.35;;
34204;SDS011;20471;49.680;20.074;2022-12-18T07:07:34;67.25;;;28.12;;
34204;SDS011;20471;49.680;20.074;2022-12-18T07:10:01;68.22;;;27.22;;
34204;SDS011;20471;49.680;20.074;2022-12-18T07:12:29;76.45;;;28.55;;
34204;SDS011;20471;49.680;20.074;2022-12-18T07:14:55;76.65;;;29.42;;
34204;SDS011;20471;49.680;20.074;2022-12-18T07:17:22;83.85;;;30.92;;
34204;SDS011;20471;49.680;20.074;2022-12-18T07:19:49;83.22;;;28.17;;
34204;SDS011;20471;49.680;20.074;2022-12-18T07:22:15;67.47;;;26.07;;
34204;SDS011;20471;49.680;20.074;2022-12-18T07:24:42;74.82;;;27.20;;
34204;SDS011;20471;49.680;20.074;2022-12-18T07:27:08;71.22;;;28.92;;
34204;SDS011;20471;49.680;20.074;2022-12-18T07:29:35;67.22;;;29.67;;
34204;SDS011;20471;49.680;20.074;2022-12-18T07:32:02;76.70;;;30.65;;
34204;SDS011;20471;49.680;20.074;2022-12-18T07:34:28;75.25;;;29.42;;
34204;SDS011;20471;49.680;20.074;2022-12-18T07:36:55;74.45;;;29.27;;
34204;SDS011;20471;49.680;20.074;2022-12-18T07:39:22;75.37;;;29.75;;
34204;SDS011;20471;49.680;20.074;2022-12-18T07:41:48;71.40;;;28.62;;
34204;SDS011;20471;49.680;20.074;2022-12-18T07:44:17;79.87;;;30.50;;
34204;SDS011;20471;49.680;20.074;2022-12-18T07:46:44;73.37;;;27.30;;
34204;SDS011;20471;49.680;20.074;2022-12-18T07:49:10;67.65;;;27.20;;
34204;SDS011;20471;49.680;20.074;2022-12-18T07:51:37;72.40;;;29.07;;
34204;SDS011;20471;49.680;20.074;2022-12-18T07:54:03;85.83;;;33.23;;
34204;SDS011;20471;49.680;20.074;2022-12-18T07:56:30;78.55;;;30.40;;
34204;SDS011;20471;49.680;20.074;2022-12-18T07:58:57;85.03;;;30.72;;
34204;SDS011;20471;49.680;20.074;2022-12-18T08:01:24;78.57;;;29.20;;
34204;SDS011;20471;49.680;20.074;2022-12-18T08:03:51;80.40;;;28.05;;
34204;SDS011;20471;49.680;20.074;2022-12-18T08:06:18;69.40;;;27.30;;
34204;SDS011;20471;49.680;20.074;2022-12-18T08:08:45;88.05;;;32.38;;
34204;SDS011;20471;49.680;20.074;2022-12-18T08:11:12;82.08;;;31.95;;
34204;SDS011;20471;49.680;20.074;2022-12-18T08:13:38;73.45;;;29.57;;
34204;SDS011;20471;49.680;20.074;2022-12-18T08:16:06;59.42;;;25.35;;
34204;SDS011;20471;49.680;20.074;2022-12-18T08:18:34;64.50;;;24.23;;
34204;SDS011;20471;49.680;20.074;2022-12-18T08:21:09;57.08;;;23.25;;
34204;SDS011;20471;49.680;20.074;2022-12-18T08:23:46;66.15;;;25.45;;
34204;SDS011;20471;49.680;20.074;2022-12-18T08:26:13;58.85;;;25.32;;
34204;SDS011;20471;49.680;20.074;2022-12-18T08:28:40;64.87;;;24.50;;
34204;SDS011;20471;49.680;20.074;2022-12-18T08:31:08;65.08;;;24.25;;
34204;SDS011;20471;49.680;20.074;2022-12-18T08:33:35;64.77;;;25.55;;
34204;SDS011;20471;49.680;20.074;2022-12-18T08:36:05;114.25;;;43.30;;
34204;SDS011;20471;49.680;20.074;2022-12-18T08:38:33;119.85;;;39.33;;
34204;SDS011;20471;49.680;20.074;2022-12-18T08:43:33;78.75;;;26.52;;
34204;SDS011;20471;49.680;20.074;2022-12-18T08:46:19;59.27;;;24.20;;
34204;SDS011;20471;49.680;20.074;2022-12-18T08:48:47;57.73;;;22.62;;
34204;SDS011;20471;49.680;20.074;2022-12-18T08:51:17;58.50;;;22.98;;
34204;SDS011;20471;49.680;20.074;2022-12-18T08:53:44;59.00;;;21.57;;
34204;SDS011;20471;49.680;20.074;2022-12-18T08:56:12;58.15;;;22.62;;
34204;SDS011;20471;49.680;20.074;2022-12-18T08:58:40;52.45;;;22.32;;
34204;SDS011;20471;49.680;20.074;2022-12-18T09:01:09;67.17;;;26.27;;
34204;SDS011;20471;49.680;20.074;2022-12-18T09:03:38;76.60;;;27.17;;
34204;SDS011;20471;49.680;20.074;2022-12-18T09:06:05;58.50;;;23.38;;
34204;SDS011;20471;49.680;20.074;2022-12-18T09:08:32;49.70;;;21.80;;
34204;SDS011;20471;49.680;20.074;2022-12-18T09:11:03;56.75;;;23.07;;
34204;SDS011;20471;49.680;20.074;2022-12-18T09:13:30;53.90;;;21.57;;
34204;SDS011;20471;49.680;20.074;2022-12-18T09:15:57;44.42;;;19.77;;
34204;SDS011;20471;49.680;20.074;2022-12-18T09:18:24;67.67;;;26.95;;
34204;SDS011;20471;49.680;20.074;2022-12-18T09:20:50;53.52;;;21.62;;
34204;SDS011;20471;49.680;20.074;2022-12-18T09:23:18;47.00;;;20.90;;
34204;SDS011;20471;49.680;20.074;2022-12-18T09:25:46;53.05;;;22.20;;
34204;SDS011;20471;49.680;20.074;2022-12-18T09:28:13;45.58;;;20.30;;
34204;SDS011;20471;49.680;20.074;2022-12-18T09:30:44;49.85;;;21.82;;
34204;SDS011;20471;49.680;20.074;2022-12-18T09:33:14;54.88;;;23.60;;
34204;SDS011;20471;49.680;20.074;2022-12-18T09:35:42;55.10;;;24.52;;
34204;SDS011;20471;49.680;20.074;2022-12-18T09:38:11;46.60;;;19.12;;
34204;SDS011;20471;49.680;20.074;2022-12-18T09:40:42;47.30;;;19.60;;
34204;SDS011;20471;49.680;20.074;2022-12-18T09:43:19;53.08;;;23.02;;
34204;SDS011;20471;49.680;20.074;2022-12-18T09:46:10;58.60;;;25.10;;
34204;SDS011;20471;49.680;20.074;2022-12-18T09:48:44;59.30;;;24.15;;
34204;SDS011;20471;49.680;20.074;2022-12-18T09:51:18;56.37;;;24.47;;
34204;SDS011;20471;49.680;20.074;2022-12-18T09:56:22;56.60;;;23.27;;
34204;SDS011;20471;49.680;20.074;2022-12-18T09:58:58;52.43;;;22.15;;
34204;SDS011;20471;49.680;20.074;2022-12-18T10:03:54;55.17;;;23.45;;
34204;SDS011;20471;49.680;20.074;2022-12-18T10:06:23;56.23;;;23.62;;
34204;SDS011;20471;49.680;20.074;2022-12-18T10:09:01;61.28;;;25.85;;
34204;SDS011;20471;49.680;20.074;2022-12-18T10:18:07;53.20;;;22.52;;
34204;SDS011;20471;49.680;20.074;2022-12-18T10:20:45;48.68;;;23.05;;
34204;SDS011;20471;49.680;20.074;2022-12-18T10:23:21;53.02;;;22.87;;
34204;SDS011;20471;49.680;20.074;2022-12-18T10:26:07;53.20;;;21.05;;
34204;SDS011;20471;49.680;20.074;2022-12-18T10:28:36;52.70;;;21.42;;
34204;SDS011;20471;49.680;20.074;2022-12-18T10:33:48;60.52;;;26.35;;
34204;SDS011;20471;49.680;20.074;2022-12-18T10:36:15;61.85;;;26.27;;
34204;SDS011;20471;49.680;20.074;2022-12-18T10:38:42;54.75;;;21.27;;
34204;SDS011;20471;49.680;20.074;2022-12-18T10:46:46;51.90;;;21.02;;
34204;SDS011;20471;49.680;20.074;2022-12-18T10:52:07;47.25;;;20.10;;
34204;SDS011;20471;49.680;20.074;2022-12-18T10:54:50;49.77;;;21.75;;
34204;SDS011;20471;49.680;20.074;2022-12-18T10:57:35;48.40;;;20.25;;
34204;SDS011;20471;49.680;20.074;2022-12-18T11:02:54;48.68;;;20.77;;
34204;SDS011;20471;49.680;20.074;2022-12-18T11:05:23;50.08;;;21.70;;
34204;SDS011;20471;49.680;20.074;2022-12-18T11:07:55;52.78;;;23.27;;
34204;SDS011;20471;49.680;20.074;2022-12-18T11:10:26;61.18;;;26.07;;
34204;SDS011;20471;49.680;20.074;2022-12-18T11:13:17;65.65;;;26.30;;
34204;SDS011;20471;49.680;20.074;2022-12-18T11:15:50;69.00;;;26.68;;
34204;SDS011;20471;49.680;20.074;2022-12-18T11:20:56;60.17;;;26.02;;
34204;SDS011;20471;49.680;20.074;2022-12-18T11:23:35;61.55;;;26.12;;
34204;SDS011;20471;49.680;20.074;2022-12-18T11:26:05;51.73;;;22.82;;
34204;SDS011;20471;49.680;20.074;2022-12-18T11:28:35;58.60;;;26.02;;
34204;SDS011;20471;49.680;20.074;2022-12-18T11:31:11;80.28;;;32.50;;
34204;SDS011;20471;49.680;20.074;2022-12-18T11:36:19;81.95;;;32.23;;
34204;SDS011;20471;49.680;20.074;2022-12-18T11:38:48;62.83;;;26.27;;
34204;SDS011;20471;49.680;20.074;2022-12-18T11:41:26;64.07;;;25.02;;
34204;SDS011;20471;49.680;20.074;2022-12-18T11:44:22;72.82;;;28.52;;
34204;SDS011;20471;49.680;20.074;2022-12-18T11:46:58;68.85;;;28.73;;
34204;SDS011;20471;49.680;20.074;2022-12-18T11:49:33;71.00;;;30.35;;
34204;SDS011;20471;49.680;20.074;2022-12-18T11:52:15;75.87;;;33.50;;
34204;SDS011;20471;49.680;20.074;2022-12-18T11:54:51;79.75;;;31.48;;
34204;SDS011;20471;49.680;20.074;2022-12-18T12:20:08;70.42;;;28.62;;
34204;SDS011;20471;49.680;20.074;2022-12-18T12:22:52;77.32;;;30.10;;
34204;SDS011;20471;49.680;20.074;2022-12-18T12:31:33;69.82;;;29.00;;
34204;SDS011;20471;49.680;20.074;2022-12-18T12:34:36;76.20;;;30.75;;
34204;SDS011;20471;49.680;20.074;2022-12-18T12:37:47;79.35;;;31.50;;
34204;SDS011;20471;49.680;20.074;2022-12-18T12:40:53;72.12;;;30.27;;
34204;SDS011;20471;49.680;20.074;2022-12-18T12:43:27;71.28;;;32.03;;
34204;SDS011;20471;49.680;20.074;2022-12-18T12:46:08;68.00;;;30.32;;
34204;SDS011;20471;49.680;20.074;2022-12-18T12:48:57;79.95;;;31.73;;
34204;SDS011;20471;49.680;20.074;2022-12-18T12:51:29;75.32;;;32.42;;
34204;SDS011;20471;49.680;20.074;2022-12-18T12:54:01;73.97;;;30.05;;
34204;SDS011;20471;49.680;20.074;2022-12-18T12:56:43;75.72;;;32.03;;
34204;SDS011;20471;49.680;20.074;2022-12-18T13:07:52;83.00;;;33.30;;
34204;SDS011;20471;49.680;20.074;2022-12-18T13:10:30;84.05;;;35.75;;
34204;SDS011;20471;49.680;20.074;2022-12-18T13:12:59;81.72;;;34.20;;
34204;SDS011;20471;49.680;20.074;2022-12-18T13:15:45;86.35;;;36.13;;
34204;SDS011;20471;49.680;20.074;2022-12-18T13:18:32;83.25;;;36.58;;
34204;SDS011;20471;49.680;20.074;2022-12-18T13:36:42;82.75;;;33.75;;
34204;SDS011;20471;49.680;20.074;2022-12-18T13:49:58;103.07;;;41.88;;
34204;SDS011;20471;49.680;20.074;2022-12-18T13:52:28;100.95;;;40.48;;
34204;SDS011;20471;49.680;20.074;2022-12-18T13:55:01;131.35;;;49.48;;
34204;SDS011;20471;49.680;20.074;2022-12-18T13:57:35;153.95;;;52.23;;
34204;SDS011;20471;49.680;20.074;2022-12-18T14:02:54;144.85;;;54.10;;
34204;SDS011;20471;49.680;20.074;2022-12-18T14:05:25;144.22;;;55.75;;
34204;SDS011;20471;49.680;20.074;2022-12-18T14:08:00;130.52;;;52.15;;
34204;SDS011;20471;49.680;20.074;2022-12-18T14:13:08;105.27;;;43.85;;
34204;SDS011;20471;49.680;20.074;2022-12-18T14:15:39;117.22;;;47.65;;
34204;SDS011;20471;49.680;20.074;2022-12-18T14:18:26;125.75;;;54.13;;
34204;SDS011;20471;49.680;20.074;2022-12-18T14:21:18;159.65;;;68.75;;
34204;SDS011;20471;49.680;20.074;2022-12-18T14:26:36;127.02;;;54.53;;
34204;SDS011;20471;49.680;20.074;2022-12-18T14:29:20;180.80;;;79.40;;
34204;SDS011;20471;49.680;20.074;2022-12-18T14:32:12;199.27;;;90.35;;
34204;SDS011;20471;49.680;20.074;2022-12-18T14:34:46;203.32;;;90.22;;
34204;SDS011;20471;49.680;20.074;2022-12-18T14:37:24;189.43;;;86.45;;
34204;SDS011;20471;49.680;20.074;2022-12-18T14:39:56;210.88;;;94.80;;
34204;SDS011;20471;49.680;20.074;2022-12-18T14:42:27;296.20;;;130.10;;
34204;SDS011;20471;49.680;20.074;2022-12-18T14:48:00;365.20;;;166.07;;
34204;SDS011;20471;49.680;20.074;2022-12-18T14:50:36;370.90;;;173.53;;
34204;SDS011;20471;49.680;20.074;2022-12-18T14:53:05;337.23;;;149.42;;
34204;SDS011;20471;49.680;20.074;2022-12-18T14:55:52;303.55;;;135.25;;
34204;SDS011;20471;49.680;20.074;2022-12-18T14:58:19;324.35;;;142.28;;
34204;SDS011;20471;49.680;20.074;2022-12-18T15:00:46;349.77;;;153.72;;
34204;SDS011;20471;49.680;20.074;2022-12-18T15:03:17;364.38;;;159.82;;
34204;SDS011;20471;49.680;20.074;2022-12-18T15:05:45;369.90;;;168.13;;
34204;SDS011;20471;49.680;20.074;2022-12-18T15:08:35;365.15;;;171.37;;
34204;SDS011;20471;49.680;20.074;2022-12-18T15:11:22;306.35;;;151.60;;
34204;SDS011;20471;49.680;20.074;2022-12-18T15:13:53;304.27;;;151.37;;
34204;SDS011;20471;49.680;20.074;2022-12-18T15:16:23;276.12;;;125.75;;
34204;SDS011;20471;49.680;20.074;2022-12-18T15:18:51;272.67;;;126.00;;
34204;SDS011;20471;49.680;20.074;2022-12-18T15:21:22;302.27;;;147.40;;
34204;SDS011;20471;49.680;20.074;2022-12-18T15:23:50;271.70;;;133.78;;
34204;SDS011;20471;49.680;20.074;2022-12-18T15:26:20;278.67;;;130.47;;
34204;SDS011;20471;49.680;20.074;2022-12-18T15:31:24;285.05;;;136.72;;
34204;SDS011;20471;49.680;20.074;2022-12-18T15:36:49;384.23;;;191.03;;
34204;SDS011;20471;49.680;20.074;2022-12-18T15:39:17;376.05;;;180.00;;
34204;SDS011;20471;49.680;20.074;2022-12-18T15:41:47;375.10;;;179.15;;
34204;SDS011;20471;49.680;20.074;2022-12-18T15:44:37;357.02;;;175.78;;
34204;SDS011;20471;49.680;20.074;2022-12-18T15:47:08;340.07;;;160.85;;
34204;SDS011;20471;49.680;20.074;2022-12-18T15:49:39;341.80;;;168.55;;
34204;SDS011;20471;49.680;20.074;2022-12-18T15:52:09;326.92;;;160.60;;
34204;SDS011;20471;49.680;20.074;2022-12-18T15:54:38;340.43;;;165.03;;
34204;SDS011;20471;49.680;20.074;2022-12-18T15:57:25;377.30;;;204.38;;
34204;SDS011;20471;49.680;20.074;2022-12-18T16:02:24;386.80;;;196.35;;
34204;SDS011;20471;49.680;20.074;2022-12-18T16:04:54;402.17;;;215.12;;
34204;SDS011;20471;49.680;20.074;2022-12-18T16:07:23;602.50;;;285.40;;
34204;SDS011;20471;49.680;20.074;2022-12-18T16:09:50;542.95;;;266.25;;
34204;SDS011;20471;49.680;20.074;2022-12-18T16:12:22;470.70;;;231.28;;
34204;SDS011;20471;49.680;20.074;2022-12-18T16:14:52;435.85;;;217.57;;
34204;SDS011;20471;49.680;20.074;2022-12-18T16:17:24;405.90;;;204.75;;
34204;SDS011;20471;49.680;20.074;2022-12-18T16:19:53;425.48;;;211.40;;
34204;SDS011;20471;49.680;20.074;2022-12-18T16:22:23;412.05;;;209.18;;
34204;SDS011;20471;49.680;20.074;2022-12-18T16:24:55;468.85;;;234.62;;
34204;SDS011;20471;49.680;20.074;2022-12-18T16:27:24;462.55;;;230.92;;
34204;SDS011;20471;49.680;20.074;2022-12-18T16:29:53;445.68;;;231.02;;
34204;SDS011;20471;49.680;20.074;2022-12-18T16:32:23;425.80;;;213.55;;
34204;SDS011;20471;49.680;20.074;2022-12-18T16:34:52;852.00;;;330.65;;
34204;SDS011;20471;49.680;20.074;2022-12-18T16:37:25;915.65;;;355.95;;
34204;SDS011;20471;49.680;20.074;2022-12-18T16:39:54;664.65;;;297.25;;
34204;SDS011;20471;49.680;20.074;2022-12-18T16:42:22;628.70;;;275.90;;
34204;SDS011;20471;49.680;20.074;2022-12-18T16:44:51;525.27;;;240.40;;
34204;SDS011;20471;49.680;20.074;2022-12-18T16:47:19;591.60;;;291.27;;
34204;SDS011;20471;49.680;20.074;2022-12-18T16:49:48;549.10;;;277.80;;
34204;SDS011;20471;49.680;20.074;2022-12-18T16:52:19;615.52;;;284.73;;
34204;SDS011;20471;49.680;20.074;2022-12-18T16:54:48;567.42;;;254.78;;
34204;SDS011;20471;49.680;20.074;2022-12-18T16:57:17;536.17;;;241.05;;